Time;durP1;ratioP1;P1;durP2;ratioP2;P2;SDS_P1;SDS_P2;PMS_P1;PMS_P2;Temp;Humidity;BMP_temperature;BMP_pressure;BME280_temperature;BME280_humidity;BME280_pressure;Samples;Min_cycle;Max_cycle;Signal;HPM_P1;HPM_P2
2022/10/29 00:00:51;;;;;;;15.50;5.97;;;15.20;99.90;;;;;;5073712;28;20444;-60
2022/10/29 00:03:18;;;;;;;10.37;6.00;;;15.20;99.90;;;;;;5073519;28;20504;-59
2022/10/29 00:05:58;;;;;;;6.63;5.53;;;15.30;99.90;;;;;;5073477;28;20444;-60
2022/10/29 00:08:26;;;;;;;12.23;6.30;;;15.10;99.90;;;;;;5073579;28;20560;-60
2022/10/29 00:10:55;;;;;;;12.40;6.97;;;15.00;99.90;;;;;;5073281;28;20449;-60
2022/10/29 00:13:22;;;;;;;9.67;5.43;;;15.10;99.90;;;;;;5073333;28;20472;-60
2022/10/29 00:15:49;;;;;;;6.90;5.73;;;15.00;99.90;;;;;;5073533;28;20444;-60
2022/10/29 00:18:16;;;;;;;8.97;5.60;;;15.00;99.90;;;;;;5073471;28;20440;-60
2022/10/29 00:20:44;;;;;;;11.23;5.53;;;15.00;99.90;;;;;;5073286;28;20949;-59
2022/10/29 00:23:11;;;;;;;6.97;5.50;;;15.00;99.90;;;;;;5073200;28;20444;-60
2022/10/29 00:25:38;;;;;;;13.00;7.07;;;14.90;99.90;;;;;;5073440;28;20455;-60
2022/10/29 00:28:06;;;;;;;9.73;5.70;;;14.80;99.90;;;;;;5073049;28;20480;-60
2022/10/29 00:30:35;;;;;;;13.80;6.80;;;14.80;99.90;;;;;;5073679;28;20454;-60
2022/10/29 00:33:02;;;;;;;10.60;6.60;;;14.90;99.90;;;;;;5073415;28;20498;-60
2022/10/29 00:35:29;;;;;;;9.70;6.43;;;15.00;99.90;;;;;;5073348;28;20535;-60
2022/10/29 00:37:56;;;;;;;7.93;6.13;;;15.00;99.90;;;;;;5073150;28;20447;-60
2022/10/29 00:40:23;;;;;;;11.43;6.50;;;15.10;99.90;;;;;;5073216;28;20444;-60
2022/10/29 00:42:50;;;;;;;15.40;7.10;;;15.00;99.90;;;;;;5072937;28;20474;-60
2022/10/29 00:45:22;;;;;;;12.40;6.50;;;15.00;99.90;;;;;;5073095;28;20444;-60
2022/10/29 00:47:53;;;;;;;8.73;6.20;;;14.90;99.90;;;;;;5077090;28;21009;-60
2022/10/29 00:50:23;;;;;;;11.27;6.73;;;14.90;99.90;;;;;;5077371;28;20440;-60
2022/10/29 00:52:52;;;;;;;20.40;7.10;;;14.80;99.90;;;;;;5077629;28;20808;-60
2022/10/29 00:55:20;;;;;;;18.10;7.77;;;14.80;99.90;;;;;;5077404;28;20543;-60
2022/10/29 00:57:52;;;;;;;12.90;6.00;;;14.90;99.90;;;;;;5076915;28;20935;-60
2022/10/29 01:00:21;;;;;;;15.77;7.47;;;14.90;99.90;;;;;;5077183;28;20473;-60
2022/10/29 01:02:49;;;;;;;8.87;6.60;;;14.90;99.90;;;;;;5076899;28;20479;-60
2022/10/29 01:05:19;;;;;;;9.10;6.70;;;14.90;99.90;;;;;;5077103;28;20866;-60
2022/10/29 01:07:47;;;;;;;11.80;7.63;;;14.80;99.90;;;;;;5076974;28;20468;-60
2022/10/29 01:10:16;;;;;;;17.10;6.57;;;14.80;99.90;;;;;;5077109;28;20444;-60
2022/10/29 01:13:05;;;;;;;15.77;6.77;;;14.80;99.90;;;;;;5076722;28;20471;-60
2022/10/29 01:15:41;;;;;;;15.00;7.50;;;14.70;99.90;;;;;;5076711;28;20904;-60
2022/10/29 01:18:17;;;;;;;18.17;7.07;;;14.80;99.90;;;;;;5076861;28;20431;-60
2022/10/29 01:21:32;;;;;;;12.43;7.33;;;14.80;99.90;;;;;;5076831;28;20420;-60
2022/10/29 01:24:43;;;;;;;12.07;6.37;;;14.80;99.90;;;;;;5069799;28;20496;-60
2022/10/29 01:27:36;;;;;;;11.80;7.20;;;14.70;99.90;;;;;;5076611;28;20434;-60
2022/10/29 01:30:21;;;;;;;9.73;6.53;;;14.70;99.90;;;;;;5076258;28;20826;-60
2022/10/29 01:33:07;;;;;;;13.43;7.50;;;14.80;99.90;;;;;;5076504;28;20506;-60
2022/10/29 01:35:43;;;;;;;10.90;6.73;;;14.80;99.90;;;;;;5076525;28;20433;-60
2022/10/29 01:38:21;;;;;;;12.70;7.63;;;14.90;99.90;;;;;;5076175;28;20519;-60
2022/10/29 01:40:54;;;;;;;10.33;6.57;;;;;;;;;;5076204;28;20416;-60
2022/10/29 01:43:25;;;;;;;13.23;7.23;;;15.00;99.90;;;;;;5076302;28;20538;-60
2022/10/29 01:45:58;;;;;;;11.80;7.00;;;15.00;99.90;;;;;;5076148;28;20428;-60
2022/10/29 01:48:32;;;;;;;14.07;7.23;;;14.90;99.90;;;;;;5076282;28;20482;-60
2022/10/29 01:51:04;;;;;;;13.67;7.27;;;14.90;99.90;;;;;;5075981;28;20435;-60
2022/10/29 01:53:36;;;;;;;12.03;6.97;;;14.90;99.90;;;;;;5075818;28;20479;-60
2022/10/29 01:56:03;;;;;;;13.40;7.37;;;14.90;99.90;;;;;;5076129;28;20435;-60
2022/10/29 01:58:31;;;;;;;9.30;7.40;;;14.80;99.90;;;;;;5075396;28;20451;-60
2022/10/29 02:01:06;;;;;;;12.03;7.20;;;14.90;99.90;;;;;;5076045;28;20451;-60
2022/10/29 02:03:42;;;;;;;12.70;8.13;;;14.90;99.90;;;;;;5075554;28;20974;-60
2022/10/29 02:06:21;;;;;;;11.03;6.33;;;14.80;99.90;;;;;;5076109;28;20428;-60
2022/10/29 02:08:57;;;;;;;13.70;6.63;;;14.80;99.90;;;;;;5075960;28;20474;-60
2022/10/29 02:11:27;;;;;;;9.73;6.70;;;14.70;99.90;;;;;;5076014;28;20433;-60
2022/10/29 02:13:58;;;;;;;8.97;7.33;;;14.70;99.90;;;;;;5075776;28;20468;-60
2022/10/29 02:16:26;;;;;;;10.93;7.63;;;14.60;99.90;;;;;;5075707;28;20452;-60
2022/10/29 02:18:56;;;;;;;11.97;7.93;;;14.60;99.90;;;;;;5074240;28;20463;-60
2022/10/29 02:21:24;;;;;;;10.60;7.23;;;14.70;99.90;;;;;;5061009;28;20448;-60
2022/10/29 02:23:51;;;;;;;18.27;7.63;;;14.70;99.90;;;;;;5074678;28;20484;-60
2022/10/29 02:26:18;;;;;;;12.13;6.77;;;14.80;99.90;;;;;;5073756;28;20445;-60
2022/10/29 02:28:45;;;;;;;13.20;7.07;;;14.90;99.90;;;;;;5055453;28;20927;-60
2022/10/29 02:31:12;;;;;;;11.20;8.23;;;14.90;99.90;;;;;;5061880;28;20484;-60
2022/10/29 02:33:39;;;;;;;13.40;7.80;;;14.90;99.90;;;;;;5069788;28;20791;-60
2022/10/29 02:36:09;;;;;;;14.20;6.90;;;14.80;99.90;;;;;;5059376;28;20441;-60
2022/10/29 02:38:36;;;;;;;13.37;7.20;;;14.90;99.90;;;;;;5070446;28;20463;-60
2022/10/29 02:41:03;;;;;;;11.30;7.07;;;14.90;99.90;;;;;;5055286;28;20453;-60
2022/10/29 02:43:30;;;;;;;8.67;6.50;;;14.90;99.90;;;;;;5055280;28;20560;-60
2022/10/29 02:46:17;;;;;;;12.43;6.60;;;14.90;99.90;;;;;;5054852;28;20548;-60
2022/10/29 02:48:45;;;;;;;13.73;6.00;;;14.90;99.90;;;;;;5055073;28;20473;-60
2022/10/29 02:51:14;;;;;;;7.03;6.30;;;14.90;99.90;;;;;;5054778;28;20950;-60
2022/10/29 02:53:41;;;;;;;22.93;7.67;;;15.00;99.90;;;;;;5054776;28;20465;-60
2022/10/29 02:56:09;;;;;;;11.13;6.50;;;15.10;99.90;;;;;;5054897;28;20456;-60
2022/10/29 02:58:37;;;;;;;8.83;6.10;;;15.10;99.90;;;;;;5054861;28;20801;-60
2022/10/29 03:01:05;;;;;;;16.37;7.93;;;15.10;99.90;;;;;;5054719;28;20503;-60
2022/10/29 03:03:32;;;;;;;9.40;7.10;;;15.00;99.90;;;;;;5054435;28;20496;-60
2022/10/29 03:05:59;;;;;;;12.50;7.47;;;15.00;99.90;;;;;;5054766;28;20445;-60
2022/10/29 03:08:28;;;;;;;9.57;6.37;;;15.10;99.90;;;;;;5053898;28;20485;-60
2022/10/29 03:10:55;;;;;;;10.77;7.57;;;15.10;99.90;;;;;;5059930;28;20452;-60
2022/10/29 03:13:22;;;;;;;13.90;6.60;;;15.00;99.90;;;;;;5074275;28;20472;-60
2022/10/29 03:15:49;;;;;;;9.53;6.43;;;15.00;99.90;;;;;;5074418;28;20523;-60
2022/10/29 03:18:16;;;;;;;19.13;8.00;;;15.10;99.90;;;;;;5074628;28;20436;-60
2022/10/29 03:20:46;;;;;;;10.60;5.83;;;15.10;99.90;;;;;;5074594;28;20451;-60
2022/10/29 03:23:13;;;;;;;10.93;6.93;;;15.10;99.90;;;;;;5074064;28;20978;-60
2022/10/29 03:25:42;;;;;;;12.53;6.50;;;15.10;99.90;;;;;;5074218;28;20453;-60
2022/10/29 03:28:09;;;;;;;14.30;6.60;;;15.00;99.90;;;;;;5073924;28;20519;-61
2022/10/29 03:30:36;;;;;;;13.47;7.07;;;15.10;99.90;;;;;;5074020;28;20460;-60
2022/10/29 03:33:03;;;;;;;13.40;8.07;;;15.10;99.90;;;;;;5074462;28;20807;-60
2022/10/29 03:35:30;;;;;;;14.40;6.20;;;15.10;99.90;;;;;;5074247;28;20479;-60
2022/10/29 03:37:57;;;;;;;12.43;8.10;;;15.00;99.90;;;;;;5074174;28;20449;-60
2022/10/29 03:40:24;;;;;;;9.93;6.87;;;15.00;99.90;;;;;;5073901;28;20927;-60
2022/10/29 03:42:53;;;;;;;8.73;6.60;;;15.10;99.90;;;;;;5074033;28;20561;-60
2022/10/29 03:45:20;;;;;;;15.23;7.10;;;15.10;99.90;;;;;;5074023;28;20451;-60
2022/10/29 03:47:47;;;;;;;8.30;6.67;;;15.00;99.90;;;;;;5074003;28;20449;-60
2022/10/29 03:50:14;;;;;;;12.80;6.90;;;15.00;99.90;;;;;;5073920;28;20448;-60
2022/10/29 03:52:41;;;;;;;12.90;6.17;;;14.90;99.90;;;;;;5073577;28;21066;-60
2022/10/29 03:55:09;;;;;;;11.70;7.00;;;15.00;99.90;;;;;;5073986;28;20448;-60
2022/10/29 03:57:36;;;;;;;10.27;6.27;;;15.00;99.90;;;;;;5073769;28;20448;-60
2022/10/29 04:00:05;;;;;;;8.63;5.87;;;15.00;99.90;;;;;;5073725;28;20444;-60
2022/10/29 04:02:32;;;;;;;11.07;6.30;;;15.00;99.90;;;;;;5073546;28;20958;-60
2022/10/29 04:04:59;;;;;;;9.17;6.30;;;14.90;99.90;;;;;;5073771;28;20814;-60
2022/10/29 04:07:27;;;;;;;11.60;7.40;;;15.00;99.90;;;;;;5073676;28;20452;-60
2022/10/29 04:09:54;;;;;;;8.50;6.70;;;15.00;99.90;;;;;;5073692;28;20484;-60
2022/10/29 04:12:21;;;;;;;13.27;7.17;;;15.00;99.90;;;;;;5073884;28;20471;-60
2022/10/29 04:14:48;;;;;;;8.83;6.67;;;15.10;99.90;;;;;;5073322;28;20448;-60
2022/10/29 04:17:16;;;;;;;11.83;6.27;;;15.00;99.90;;;;;;5073636;28;20452;-60
2022/10/29 04:19:43;;;;;;;9.83;6.10;;;14.90;99.90;;;;;;5073142;28;20448;-60
2022/10/29 04:22:11;;;;;;;12.53;6.00;;;14.90;99.90;;;;;;5073207;28;20466;-60
2022/10/29 04:24:38;;;;;;;13.83;7.73;;;14.90;99.90;;;;;;5073490;28;20455;-60
2022/10/29 04:27:05;;;;;;;11.60;6.27;;;14.90;99.90;;;;;;5073497;28;20476;-60
2022/10/29 04:29:32;;;;;;;9.10;6.23;;;14.90;99.90;;;;;;5072998;28;20488;-60
2022/10/29 04:31:59;;;;;;;12.53;6.10;;;14.90;99.90;;;;;;5072989;28;20539;-60
2022/10/29 04:34:28;;;;;;;14.60;6.73;;;14.90;99.90;;;;;;5073543;28;20445;-60
2022/10/29 04:36:55;;;;;;;12.90;6.57;;;14.90;99.90;;;;;;5073348;28;20447;-60
2022/10/29 04:39:22;;;;;;;9.90;6.40;;;14.90;99.90;;;;;;5073337;28;20447;-60
2022/10/29 04:41:49;;;;;;;13.57;7.23;;;14.80;99.90;;;;;;5073383;28;20450;-60
2022/10/29 04:44:16;;;;;;;7.80;5.70;;;14.80;99.90;;;;;;5073003;28;20450;-60
2022/10/29 04:46:43;;;;;;;9.47;6.33;;;14.80;99.90;;;;;;5073310;28;20456;-60
2022/10/29 04:49:10;;;;;;;17.50;8.43;;;14.70;99.90;;;;;;5073287;28;20480;-60
2022/10/29 04:51:39;;;;;;;15.03;7.40;;;14.70;99.90;;;;;;5072949;28;20444;-60
2022/10/29 04:54:06;;;;;;;10.47;6.23;;;14.60;99.90;;;;;;5072799;28;20470;-60
2022/10/29 04:56:33;;;;;;;13.10;6.50;;;14.60;99.90;;;;;;5072939;28;20447;-60
2022/10/29 04:59:00;;;;;;;10.03;6.73;;;14.70;99.90;;;;;;5072775;28;20927;-60
2022/10/29 05:01:27;;;;;;;9.60;6.77;;;14.70;99.90;;;;;;5072936;28;20535;-60
2022/10/29 05:03:54;;;;;;;10.93;6.63;;;14.60;99.90;;;;;;5072697;28;20563;-60
2022/10/29 05:06:21;;;;;;;8.50;6.10;;;14.50;99.90;;;;;;5073097;28;20449;-60
2022/10/29 05:08:50;;;;;;;9.90;6.43;;;14.50;99.90;;;;;;5072660;28;20482;-60
2022/10/29 05:11:17;;;;;;;5.80;5.20;;;14.40;99.90;;;;;;5072832;28;20454;-60
2022/10/29 05:13:45;;;;;;;11.60;6.27;;;14.30;99.90;;;;;;5072611;28;20468;-60
2022/10/29 05:16:12;;;;;;;11.93;6.80;;;14.40;99.90;;;;;;5072670;28;20452;-60
2022/10/29 05:18:39;;;;;;;8.30;6.70;;;14.30;99.90;;;;;;5073087;28;20466;-60
2022/10/29 05:21:06;;;;;;;10.00;6.30;;;14.30;99.90;;;;;;5073026;28;20795;-60
2022/10/29 05:23:33;;;;;;;10.03;6.43;;;14.20;99.90;;;;;;5072853;28;20510;-60
2022/10/29 05:26:02;;;;;;;9.60;6.23;;;14.20;99.90;;;;;;5072581;28;20534;-59
2022/10/29 05:28:29;;;;;;;10.87;6.90;;;14.20;99.90;;;;;;5072618;28;20431;-60
2022/10/29 05:30:59;;;;;;;11.80;6.30;;;14.10;99.90;;;;;;5072620;28;20444;-59
2022/10/29 05:33:26;;;;;;;9.63;7.10;;;14.10;99.90;;;;;;5076606;28;20464;-60
2022/10/29 05:35:53;;;;;;;12.13;7.10;;;14.10;99.90;;;;;;5076338;28;20441;-60
2022/10/29 05:38:20;;;;;;;13.27;6.93;;;14.10;99.90;;;;;;5076167;28;20444;-60
2022/10/29 05:40:48;;;;;;;13.50;6.57;;;14.10;99.90;;;;;;5076120;28;20448;-60
2022/10/29 05:43:17;;;;;;;10.77;6.00;;;14.10;99.90;;;;;;5076132;28;20470;-60
2022/10/29 05:45:45;;;;;;;13.20;6.20;;;14.10;99.90;;;;;;5075980;28;20448;-60
2022/10/29 05:48:13;;;;;;;11.00;8.07;;;14.10;99.90;;;;;;5075940;28;20839;-60
2022/10/29 05:50:40;;;;;;;13.73;7.03;;;14.00;99.90;;;;;;5075944;28;20986;-60
2022/10/29 05:53:10;;;;;;;14.70;5.67;;;14.00;99.90;;;;;;5076125;28;20470;-60
2022/10/29 05:55:38;;;;;;;9.20;6.00;;;14.00;99.90;;;;;;5076162;28;20448;-60
2022/10/29 05:58:06;;;;;;;6.60;5.70;;;14.00;99.90;;;;;;5076153;28;20444;-60
2022/10/29 06:00:37;;;;;;;12.43;6.80;;;14.00;99.90;;;;;;5076190;28;20437;-60
2022/10/29 06:03:08;;;;;;;10.10;7.00;;;13.90;99.90;;;;;;5075411;28;20491;-60
2022/10/29 06:05:36;;;;;;;12.07;7.10;;;13.90;99.90;;;;;;5076180;28;20435;-60
2022/10/29 06:08:03;;;;;;;7.33;6.10;;;;;;;;;;5075985;28;20444;-60
2022/10/29 06:10:30;;;;;;;11.03;6.60;;;13.90;99.90;;;;;;5075859;28;20476;-60
2022/10/29 06:12:57;;;;;;;8.90;6.47;;;13.90;99.90;;;;;;5075428;28;20461;-60
2022/10/29 06:15:24;;;;;;;15.20;7.10;;;13.90;99.90;;;;;;5075628;28;20798;-60
2022/10/29 06:17:53;;;;;;;10.33;7.40;;;13.90;99.90;;;;;;5075737;28;20451;-60
2022/10/29 06:20:21;;;;;;;9.90;7.07;;;13.90;99.90;;;;;;5075656;28;20535;-59
2022/10/29 06:22:55;;;;;;;11.30;6.60;;;13.80;99.90;;;;;;5075350;28;20465;-60
2022/10/29 06:25:22;;;;;;;12.63;7.03;;;13.80;99.90;;;;;;5075692;28;20494;-60
2022/10/29 06:27:57;;;;;;;6.57;4.67;;;;;;;;;;5075241;28;20488;-60
2022/10/29 06:30:25;;;;;;;6.00;4.97;;;15.40;99.90;;;;;;5075130;28;20468;-61
2022/10/29 06:32:53;;;;;;;8.93;5.20;;;17.40;99.90;;;;;;5075522;28;20476;-61
2022/10/29 06:35:20;;;;;;;6.60;5.23;;;18.70;99.90;;;;;;5075369;28;20809;-63
2022/10/29 06:37:48;;;;;;;11.93;5.50;;;;;;;;;;5075017;28;20480;-60
2022/10/29 06:40:15;;;;;;;8.43;5.30;;;19.70;99.90;;;;;;5075387;28;20448;-58
2022/10/29 06:42:42;;;;;;;7.93;5.10;;;19.90;99.90;;;;;;5074785;28;20476;-57
2022/10/29 06:45:11;;;;;;;13.30;5.70;;;20.20;99.90;;;;;;5075039;28;20531;-56
2022/10/29 06:47:41;;;;;;;8.40;4.97;;;;;;;;;;5075031;28;20457;-57
2022/10/29 06:50:12;;;;;;;7.37;5.00;;;20.50;99.90;;;;;;5074818;28;20491;-56
2022/10/29 06:52:39;;;;;;;7.63;5.20;;;20.50;99.90;;;;;;5074522;28;20475;-56
2022/10/29 06:55:08;;;;;;;8.90;5.00;;;20.80;99.90;;;;;;5074476;28;20444;-57
2022/10/29 06:57:35;;;;;;;9.80;6.00;;;21.10;99.90;;;;;;5074462;28;20527;-57
2022/10/29 07:00:03;;;;;;;11.00;4.43;;;;;;;;;;5074610;28;20444;-56
2022/10/29 07:02:30;;;;;;;10.50;5.80;;;21.10;99.90;;;;;;5073894;28;20486;-56
2022/10/29 07:04:57;;;;;;;13.67;5.50;;;21.20;99.90;;;;;;5074321;28;20896;-56
2022/10/29 07:07:28;;;;;;;6.40;5.30;;;21.00;99.90;;;;;;5074726;28;20448;-56
2022/10/29 07:09:55;;;;;;;6.20;5.60;;;20.90;99.90;;;;;;5074425;28;20536;-55
2022/10/29 07:12:22;;;;;;;6.30;5.00;;;20.90;99.90;;;;;;5071163;28;20807;-56
2022/10/29 07:14:49;;;;;;;9.07;6.60;;;20.90;99.90;;;;;;5064638;28;20804;-56
2022/10/29 07:17:16;;;;;;;6.53;5.47;;;20.50;99.90;;;;;;5073542;28;20458;-55
2022/10/29 07:19:43;;;;;;;8.03;4.70;;;20.90;99.90;;;;;;5072938;28;20479;-56
2022/10/29 07:22:11;;;;;;;8.80;6.33;;;21.00;99.90;;;;;;5072959;28;20532;-58
2022/10/29 07:24:39;;;;;;;9.27;5.83;;;20.90;99.90;;;;;;5073868;28;20458;-57
2022/10/29 07:27:06;;;;;;;6.10;5.50;;;20.00;99.90;;;;;;5073098;28;20483;-59
2022/10/29 07:29:34;;;;;;;17.60;6.93;;;19.40;99.90;;;;;;5073592;28;20480;-60
2022/10/29 07:32:01;;;;;;;8.67;7.03;;;19.60;99.90;;;;;;5072033;28;20466;-60
2022/10/29 07:34:28;;;;;;;16.27;6.90;;;19.20;99.90;;;;;;5073351;28;20532;-59
2022/10/29 07:36:55;;;;;;;14.33;7.33;;;19.30;99.90;;;;;;5071990;28;20444;-60
2022/10/29 07:39:22;;;;;;;8.53;6.80;;;19.20;99.90;;;;;;5071551;28;20447;-59
2022/10/29 07:41:51;;;;;;;10.60;5.77;;;19.00;99.90;;;;;;5071581;28;20919;-58
2022/10/29 07:44:18;;;;;;;13.93;6.97;;;18.80;99.90;;;;;;5071867;28;20527;-58
2022/10/29 07:46:45;;;;;;;10.53;5.83;;;18.70;99.90;;;;;;5071710;28;20448;-59
2022/10/29 07:49:12;;;;;;;9.67;6.80;;;18.60;99.90;;;;;;5070838;28;20928;-57
2022/10/29 07:51:39;;;;;;;12.03;8.37;;;18.70;99.90;;;;;;5071929;28;20448;-59
2022/10/29 07:54:06;;;;;;;13.83;7.10;;;19.30;99.90;;;;;;5072481;28;20475;-59
2022/10/29 07:56:34;;;;;;;10.03;6.47;;;19.30;99.90;;;;;;5072572;28;20548;-58
2022/10/29 07:59:02;;;;;;;9.73;6.07;;;19.20;99.90;;;;;;5073412;28;20480;-58
2022/10/29 08:01:29;;;;;;;9.30;6.10;;;19.80;99.90;;;;;;5069218;28;20484;-59
2022/10/29 08:03:56;;;;;;;9.83;6.20;;;20.30;99.90;;;;;;5081646;28;20480;-57
2022/10/29 08:06:24;;;;;;;11.10;7.67;;;20.30;99.90;;;;;;5077155;28;20460;-61
2022/10/29 08:08:51;;;;;;;12.50;6.93;;;20.40;99.90;;;;;;5073370;28;20440;-59
2022/10/29 08:11:18;;;;;;;17.93;7.10;;;20.60;99.90;;;;;;5070182;28;20488;-58
2022/10/29 08:13:45;;;;;;;14.10;7.03;;;20.70;99.90;;;;;;5064700;28;20978;-58
2022/10/29 08:16:13;;;;;;;14.00;7.40;;;20.50;99.90;;;;;;5065816;28;20445;-64
2022/10/29 08:18:40;;;;;;;14.20;6.47;;;20.40;99.90;;;;;;5066231;28;20512;-58
2022/10/29 08:21:08;;;;;;;12.90;7.33;;;20.30;99.90;;;;;;5066961;28;20531;-55
2022/10/29 08:23:35;;;;;;;10.67;6.63;;;20.50;99.90;;;;;;5064760;28;20838;-56
2022/10/29 08:26:02;;;;;;;17.87;8.40;;;20.30;99.90;;;;;;5069501;28;20513;-56
2022/10/29 08:28:29;;;;;;;14.73;6.60;;;20.30;99.90;;;;;;5065426;28;20527;-56
2022/10/29 08:30:57;;;;;;;12.90;7.13;;;20.50;99.90;;;;;;5072642;28;20472;-51
2022/10/29 08:33:25;;;;;;;17.17;7.10;;;20.50;99.90;;;;;;5062178;28;20518;-59
2022/10/29 08:35:53;;;;;;;20.63;6.50;;;20.60;99.90;;;;;;5067741;28;20546;-60
2022/10/29 08:38:22;;;;;;;12.90;7.93;;;20.70;99.90;;;;;;5062518;28;20536;-57
2022/10/29 08:41:05;;;;;;;13.93;9.23;;;20.90;99.90;;;;;;5061785;28;20477;-57
2022/10/29 08:43:59;;;;;;;14.67;6.87;;;20.60;99.90;;;;;;5060815;28;20465;-57
2022/10/29 08:46:40;;;;;;;10.97;6.50;;;20.30;99.90;;;;;;5060547;28;20444;-63
2022/10/29 08:49:15;;;;;;;8.27;5.73;;;20.00;99.90;;;;;;5056992;28;20442;-55
2022/10/29 08:51:48;;;;;;;15.37;7.30;;;20.70;99.90;;;;;;5058675;28;20479;-57
2022/10/29 08:54:16;;;;;;;14.13;6.57;;;20.80;99.90;;;;;;5067014;28;20796;-57
2022/10/29 08:56:47;;;;;;;7.33;6.03;;;21.50;99.90;;;;;;5063719;28;20445;-58
2022/10/29 08:59:17;;;;;;;7.60;5.63;;;21.40;99.90;;;;;;5063781;28;20531;-61
2022/10/29 09:01:44;;;;;;;13.63;6.87;;;21.50;99.90;;;;;;5065746;28;20931;-60
2022/10/29 09:04:22;;;;;;;13.77;6.47;;;21.80;99.90;;;;;;5062282;28;20475;-60
2022/10/29 09:07:02;;;;;;;17.00;6.40;;;22.00;99.90;;;;;;5067046;28;20528;-54
2022/10/29 09:09:32;;;;;;;9.50;6.00;;;;;;;;;;5067085;28;20433;-55
2022/10/29 09:12:04;;;;;;;13.13;6.90;;;;;;;;;;5067633;28;20449;-55
2022/10/29 09:15:09;;;;;;;9.70;5.87;;;22.90;99.90;;;;;;5069270;28;20429;-56
2022/10/29 09:17:45;;;;;;;9.53;5.50;;;23.00;99.90;;;;;;5067221;28;20424;-57
2022/10/29 09:20:25;;;;;;;12.63;5.67;;;22.90;99.90;;;;;;5062732;28;20427;-61
2022/10/29 09:23:05;;;;;;;13.23;6.00;;;22.80;99.90;;;;;;5061966;28;20484;-57
2022/10/29 09:25:40;;;;;;;10.90;6.13;;;22.80;99.90;;;;;;5062120;28;20438;-58
2022/10/29 09:28:25;;;;;;;15.83;6.10;;;22.50;99.90;;;;;;5066197;28;20506;-55
2022/10/29 09:31:02;;;;;;;10.50;5.67;;;21.60;99.90;;;;;;5065139;28;20468;-57
2022/10/29 09:33:30;;;;;;;8.80;6.37;;;21.60;99.90;;;;;;5066104;28;20475;-57
2022/10/29 09:36:00;;;;;;;12.17;5.93;;;22.10;99.90;;;;;;5063230;28;20923;-54
2022/10/29 09:38:30;;;;;;;11.90;5.43;;;22.30;99.90;;;;;;5064893;28;20455;-58
2022/10/29 09:41:00;;;;;;;9.10;6.37;;;22.60;99.90;;;;;;5066614;28;20954;-54
2022/10/29 09:43:38;;;;;;;8.90;6.03;;;22.80;99.90;;;;;;5068234;28;20463;-58
2022/10/29 09:46:13;;;;;;;16.27;5.50;;;23.20;99.90;;;;;;5066804;28;20428;-56
2022/10/29 09:48:52;;;;;;;15.33;6.37;;;23.40;99.90;;;;;;5066220;28;20451;-55
2022/10/29 09:51:32;;;;;;;11.33;5.10;;;23.30;99.90;;;;;;5064493;28;20832;-56
2022/10/29 09:53:59;;;;;;;12.50;5.47;;;23.40;99.90;;;;;;5059681;28;20496;-57
2022/10/29 09:56:27;;;;;;;8.00;5.00;;;23.50;99.90;;;;;;5060344;28;20451;-56
2022/10/29 09:59:04;;;;;;;10.60;5.20;;;23.50;99.90;;;;;;5064644;28;20446;-56
2022/10/29 10:01:31;;;;;;;9.37;5.70;;;23.60;99.90;;;;;;5061095;28;20462;-51
2022/10/29 10:04:05;;;;;;;13.73;6.00;;;23.00;99.90;;;;;;5061081;28;20476;-56
2022/10/29 10:07:01;;;;;;;8.67;5.33;;;23.10;99.90;;;;;;5066670;28;20432;-58
2022/10/29 10:09:28;;;;;;;14.53;5.30;;;23.20;99.90;;;;;;5073028;28;20504;-55
2022/10/29 10:11:57;;;;;;;17.77;6.70;;;23.40;99.90;;;;;;5061696;28;20869;-51
2022/10/29 10:14:26;;;;;;;13.23;5.00;;;23.30;99.90;;;;;;5063563;28;20520;-53
2022/10/29 10:16:58;;;;;;;11.33;6.07;;;23.50;99.90;;;;;;5060699;28;20620;-52
2022/10/29 10:19:28;;;;;;;10.03;6.03;;;23.40;99.90;;;;;;5067745;28;20444;-54
2022/10/29 10:22:01;;;;;;;15.83;5.80;;;23.80;99.90;;;;;;5066353;28;20432;-51
2022/10/29 10:24:31;;;;;;;14.97;5.37;;;24.00;99.90;;;;;;5062714;28;20437;-57
2022/10/29 10:26:59;;;;;;;13.53;5.13;;;;;;;;;;5066824;28;20444;-56
2022/10/29 10:29:26;;;;;;;13.60;5.30;;;24.60;99.90;;;;;;5064347;28;20441;-56
2022/10/29 10:32:16;;;;;;;13.40;5.73;;;25.90;99.90;;;;;;5062271;28;20477;-55
2022/10/29 10:34:48;;;;;;;14.67;5.97;;;26.30;99.90;;;;;;5057825;28;20453;-56
2022/10/29 10:37:19;;;;;;;13.03;5.00;;;27.10;99.90;;;;;;5059561;28;20564;-57
2022/10/29 10:40:00;;;;;;;6.47;4.50;;;27.60;99.90;;;;;;5061160;28;20520;-58
2022/10/29 10:42:29;;;;;;;17.40;5.60;;;28.10;99.90;;;;;;5057324;28;20456;-56
2022/10/29 10:44:59;;;;;;;12.50;5.53;;;28.60;99.60;;;;;;5060340;28;20453;-60
2022/10/29 10:47:30;;;;;;;8.43;5.53;;;28.70;99.20;;;;;;5058529;28;20468;-60
2022/10/29 10:50:20;;;;;;;10.87;5.67;;;28.60;99.30;;;;;;5059239;28;20999;-56
2022/10/29 10:52:53;;;;;;;11.20;5.70;;;28.70;98.30;;;;;;5059923;28;20468;-55
2022/10/29 10:55:28;;;;;;;17.37;5.97;;;28.50;98.40;;;;;;5060884;28;20449;-57
2022/10/29 10:58:02;;;;;;;7.33;4.70;;;28.70;97.90;;;;;;5058647;28;20433;-57
2022/10/29 11:00:36;;;;;;;10.53;5.53;;;28.60;97.40;;;;;;5064324;28;20428;-56
2022/10/29 11:03:14;;;;;;;8.90;4.90;;;28.70;98.50;;;;;;5060789;28;20491;-59
2022/10/29 11:05:51;;;;;;;8.57;4.83;;;28.40;97.20;;;;;;5057922;28;20446;-56
2022/10/29 11:08:26;;;;;;;8.77;4.90;;;28.30;98.30;;;;;;5061390;28;20862;-57
2022/10/29 11:10:55;;;;;;;10.70;6.10;;;29.00;98.70;;;;;;5056772;28;20472;-57
2022/10/29 11:13:25;;;;;;;7.97;5.00;;;29.10;97.20;;;;;;5060163;28;20448;-56
2022/10/29 11:15:57;;;;;;;8.20;4.50;;;29.30;96.90;;;;;;5063231;28;20445;-56
2022/10/29 11:18:30;;;;;;;7.67;5.03;;;29.30;95.50;;;;;;5061361;28;20776;-54
2022/10/29 11:21:09;;;;;;;12.03;4.67;;;29.30;96.50;;;;;;5061917;28;20445;-51
2022/10/29 11:23:48;;;;;;;12.27;5.43;;;28.80;96.50;;;;;;5061703;28;20651;-60
2022/10/29 11:26:20;;;;;;;7.93;5.57;;;28.80;96.60;;;;;;5058302;28;21433;-60
2022/10/29 11:28:54;;;;;;;10.90;5.87;;;29.20;96.70;;;;;;5056878;28;20441;-56
2022/10/29 11:31:26;;;;;;;8.20;4.87;;;29.30;96.90;;;;;;5062831;28;20500;-57
2022/10/29 11:34:02;;;;;;;10.30;5.73;;;28.90;96.80;;;;;;5060834;28;20460;-57
2022/10/29 11:36:34;;;;;;;10.90;6.37;;;28.90;96.90;;;;;;5061942;28;20528;-61
2022/10/29 11:39:10;;;;;;;7.50;5.13;;;29.20;96.50;;;;;;5059342;28;20438;-58
2022/10/29 11:41:44;;;;;;;8.30;6.30;;;29.30;96.90;;;;;;5060771;28;20439;-62
2022/10/29 11:44:13;;;;;;;10.20;5.00;;;29.20;96.70;;;;;;5062938;28;20436;-60
2022/10/29 11:46:56;;;;;;;12.33;6.10;;;29.30;96.90;;;;;;5060767;28;20448;-62
2022/10/29 11:49:43;;;;;;;7.30;5.20;;;29.10;96.20;;;;;;5059796;28;21388;-61
2022/10/29 11:52:18;;;;;;;9.80;5.07;;;29.20;96.00;;;;;;5059454;28;20507;-62
2022/10/29 11:54:59;;;;;;;8.93;4.90;;;29.50;95.70;;;;;;5061723;28;20502;-62
2022/10/29 11:57:32;;;;;;;9.60;5.70;;;29.60;95.20;;;;;;5060540;28;20935;-62
2022/10/29 12:00:09;;;;;;;11.13;4.67;;;29.30;94.80;;;;;;5059738;28;20837;-60
2022/10/29 12:02:53;;;;;;;11.90;5.30;;;29.40;95.20;;;;;;5056296;28;20914;-61
2022/10/29 12:05:29;;;;;;;15.33;5.10;;;29.60;95.10;;;;;;5059096;28;20523;-59
2022/10/29 12:08:09;;;;;;;11.10;5.57;;;29.60;95.10;;;;;;5058007;28;20526;-59
2022/10/29 12:10:50;;;;;;;9.93;5.37;;;29.10;95.40;;;;;;5057885;28;20958;-59
2022/10/29 12:13:28;;;;;;;10.00;5.10;;;28.90;95.10;;;;;;5059149;28;20461;-58
2022/10/29 12:16:09;;;;;;;15.17;5.93;;;28.10;96.10;;;;;;5060317;28;20444;-60
2022/10/29 12:18:44;;;;;;;9.70;5.27;;;28.10;96.40;;;;;;5059416;28;20433;-60
2022/10/29 12:21:19;;;;;;;11.60;5.50;;;27.50;96.80;;;;;;5061208;28;20424;-60
2022/10/29 12:24:11;;;;;;;10.13;5.60;;;26.80;97.60;;;;;;5061100;28;20457;-60
2022/10/29 12:26:45;;;;;;;9.70;5.30;;;26.40;98.70;;;;;;5053018;28;20507;-59
2022/10/29 12:29:21;;;;;;;13.23;6.03;;;26.30;98.70;;;;;;5053465;28;20429;-63
2022/10/29 12:31:55;;;;;;;20.30;5.57;;;26.20;99.00;;;;;;5052822;28;20492;-65
2022/10/29 12:34:30;;;;;;;7.30;5.37;;;26.00;98.70;;;;;;5052094;28;20441;-63
2022/10/29 12:37:06;;;;;;;15.93;5.57;;;25.80;99.60;;;;;;5051020;28;20524;-60
2022/10/29 12:39:37;;;;;;;15.93;6.00;;;25.70;99.90;;;;;;5053166;28;20433;-63
2022/10/29 12:42:12;;;;;;;13.73;5.87;;;25.40;99.90;;;;;;5062034;28;20471;-63
2022/10/29 12:44:44;;;;;;;11.83;6.20;;;25.30;99.90;;;;;;5070723;28;20935;-64
2022/10/29 12:47:17;;;;;;;16.67;7.77;;;25.20;99.90;;;;;;5070032;28;20433;-64
2022/10/29 12:49:57;;;;;;;14.30;6.47;;;25.20;99.90;;;;;;5071190;28;20443;-65
2022/10/29 12:52:34;;;;;;;14.80;8.23;;;25.10;99.90;;;;;;5071090;28;20479;-64
2022/10/29 12:55:04;;;;;;;10.50;6.03;;;25.00;99.90;;;;;;5071356;28;20425;-65
2022/10/29 12:57:34;;;;;;;16.70;6.50;;;25.00;99.90;;;;;;5071455;28;20433;-65
2022/10/29 13:00:41;;;;;;;11.47;6.30;;;25.10;99.90;;;;;;5072783;28;20941;-65
2022/10/29 13:03:08;;;;;;;12.10;5.43;;;25.30;99.90;;;;;;5077955;28;21026;-65